Time;durP1;ratioP1;P1;durP2;ratioP2;P2;SDS_P1;SDS_P2;PMS_P1;PMS_P2;Temp;Humidity;BMP_temperature;BMP_pressure;BME280_temperature;BME280_humidity;BME280_pressure;Samples;Min_cycle;Max_cycle;Signal;HPM_P1;HPM_P2
2019/11/05 00:00:02;;;;;;;3;1;;;;;;;9.4;94.26758;943.1403;;;;
2019/11/05 00:02:27;;;;;;;1.9;0.8;;;;;;;9.35;94.05176;943.1728;;;;
2019/11/05 00:04:52;;;;;;;3.3;0.9;;;;;;;9.28;94.66699;943.1895;;;;
2019/11/05 00:07:18;;;;;;;2.5;0.8;;;;;;;9.26;93.56152;943.2081;;;;
2019/11/05 00:09:43;;;;;;;2.6;0.8;;;;;;;9.18;93.29199;943.395;;;;
2019/11/05 00:12:09;;;;;;;2;0.8;;;;;;;9.15;94.19238;943.4917;;;;
2019/11/05 00:14:34;;;;;;;4.3;1;;;;;;;9.13;98.85449;943.5181;;;;
2019/11/05 00:17:00;;;;;;;3;1;;;;;;;9.08;100;943.6319;;;;
2019/11/05 00:19:25;;;;;;;2.2;0.8;;;;;;;9.05;95.75098;943.5856;;;;
2019/11/05 00:21:50;;;;;;;2.2;0.9;;;;;;;9.02;95.65527;943.5912;;;;
2019/11/05 00:24:16;;;;;;;4.4;1.3;;;;;;;8.91;96.40918;943.575;;;;
2019/11/05 00:26:41;;;;;;;1.9;0.9;;;;;;;8.84;96.90918;943.4509;;;;
2019/11/05 00:29:06;;;;;;;2.1;0.9;;;;;;;8.85;96.52148;943.4353;;;;
2019/11/05 00:31:31;;;;;;;3;1;;;;;;;8.81;97.93457;943.4802;;;;
2019/11/05 00:33:56;;;;;;;2.5;1.1;;;;;;;8.8;97.42871;943.5744;;;;
2019/11/05 00:36:21;;;;;;;2.5;0.9;;;;;;;8.73;96.83887;943.6328;;;;
2019/11/05 00:38:47;;;;;;;2.1;1.2;;;;;;;8.75;96.625;943.4347;;;;
2019/11/05 00:41:12;;;;;;;2.3;0.9;;;;;;;8.81;98.08398;943.4493;;;;
2019/11/05 00:43:38;;;;;;;3.7;1.1;;;;;;;8.77;96.73047;943.4364;;;;
2019/11/05 00:46:03;;;;;;;2.5;1.4;;;;;;;8.72;98.18945;943.5215;;;;
2019/11/05 00:48:28;;;;;;;2.7;1.5;;;;;;;8.71;97.14453;943.4495;;;;
2019/11/05 00:50:54;;;;;;;2.8;1.2;;;;;;;8.75;97.52148;943.377;;;;
2019/11/05 00:53:19;;;;;;;1.9;0.8;;;;;;;8.8;98.50391;943.2561;;;;
2019/11/05 00:55:45;;;;;;;2.3;1;;;;;;;8.76;99.81348;943.2733;;;;
2019/11/05 00:58:10;;;;;;;2.5;1;;;;;;;8.83;100;943.2797;;;;
2019/11/05 01:00:35;;;;;;;2.7;1;;;;;;;8.75;100;943.2991;;;;
2019/11/05 01:03:00;;;;;;;2.5;0.9;;;;;;;8.68;100;943.2789;;;;
2019/11/05 01:05:25;;;;;;;3;1;;;;;;;8.78;99.29297;943.217;;;;
2019/11/05 01:07:51;;;;;;;3.3;1.2;;;;;;;8.82;99.12891;943.1707;;;;
2019/11/05 01:10:16;;;;;;;1.6;0.9;;;;;;;8.82;100;943.2048;;;;
2019/11/05 01:12:41;;;;;;;2.1;1;;;;;;;8.79;99.78516;943.1511;;;;
2019/11/05 01:15:06;;;;;;;1.8;1;;;;;;;8.83;100;943.1277;;;;
2019/11/05 01:17:32;;;;;;;1.6;1;;;;;;;8.7;100;943.0717;;;;
2019/11/05 01:19:57;;;;;;;2.3;1;;;;;;;8.66;99.87109;943.0815;;;;
2019/11/05 01:22:22;;;;;;;2.4;0.9;;;;;;;8.68;100;943.0483;;;;
2019/11/05 01:24:48;;;;;;;2.6;0.9;;;;;;;8.67;99.26758;943.0533;;;;
2019/11/05 01:27:13;;;;;;;3.3;1;;;;;;;8.65;99.23828;943.0541;;;;
2019/11/05 01:29:38;;;;;;;2.4;0.8;;;;;;;8.65;100;942.9208;;;;
2019/11/05 01:32:03;;;;;;;2.7;1;;;;;;;8.65;100;942.8226;;;;
2019/11/05 01:34:29;;;;;;;2.5;1;;;;;;;8.56;99.58496;942.7561;;;;
2019/11/05 01:36:54;;;;;;;2.4;0.9;;;;;;;8.55;98.92969;942.8225;;;;
2019/11/05 01:39:20;;;;;;;2.9;1;;;;;;;8.56;99.87988;942.8155;;;;
2019/11/05 01:41:45;;;;;;;2.1;0.7;;;;;;;8.56;98.77148;942.7195;;;;
2019/11/05 01:44:10;;;;;;;2.1;0.9;;;;;;;8.6;100;942.7966;;;;
2019/11/05 01:46:35;;;;;;;2;1;;;;;;;8.67;100;942.9255;;;;
2019/11/05 01:52:28;;;;;;;3.7;1.2;;;;;;;8.6;98.35547;943.0767;;;;
2019/11/05 01:54:53;;;;;;;2.7;1;;;;;;;8.59;97.19629;943.0969;;;;
2019/11/05 01:57:18;;;;;;;3.2;1;;;;;;;8.57;99.70117;943.149;;;;
2019/11/05 01:59:43;;;;;;;2.6;0.9;;;;;;;8.54;99.38379;943.1481;;;;
2019/11/05 02:02:08;;;;;;;3.1;1.1;;;;;;;8.5;99.61621;943.1312;;;;
2019/11/05 02:04:33;;;;;;;3.5;0.9;;;;;;;8.52;99.63379;943.1155;;;;
2019/11/05 02:06:58;;;;;;;2.9;1;;;;;;;8.51;99.21484;943.0126;;;;
2019/11/05 02:09:23;;;;;;;3;1;;;;;;;8.53;100;943.1247;;;;
2019/11/05 02:11:49;;;;;;;2.7;0.9;;;;;;;8.56;99.9834;943.1028;;;;
2019/11/05 02:14:14;;;;;;;3.1;1.2;;;;;;;8.55;98.12793;943.0433;;;;
2019/11/05 02:16:39;;;;;;;2.6;0.9;;;;;;;8.57;100;943.1847;;;;
2019/11/05 02:19:04;;;;;;;2.5;0.8;;;;;;;8.56;100;943.2919;;;;
2019/11/05 02:21:29;;;;;;;3.8;0.9;;;;;;;8.56;100;943.2514;;;;
2019/11/05 02:23:54;;;;;;;2.9;1;;;;;;;8.59;99.85449;943.2562;;;;
2019/11/05 02:26:19;;;;;;;2.3;0.7;;;;;;;8.61;99.7666;943.2081;;;;
2019/11/05 02:28:44;;;;;;;2.2;0.8;;;;;;;8.62;100;943.1303;;;;
2019/11/05 02:31:09;;;;;;;3.5;1;;;;;;;8.63;100;943.0093;;;;
2019/11/05 02:33:34;;;;;;;3.3;0.8;;;;;;;8.61;100;943.0367;;;;
2019/11/05 02:36:00;;;;;;;2.9;0.9;;;;;;;8.56;99.8916;943.0103;;;;
2019/11/05 02:38:25;;;;;;;2.3;1.1;;;;;;;8.57;100;943.0295;;;;
2019/11/05 02:40:50;;;;;;;3.6;1.2;;;;;;;8.56;100;942.9753;;;;
2019/11/05 02:43:15;;;;;;;2.9;0.9;;;;;;;8.66;100;942.941;;;;
2019/11/05 02:45:40;;;;;;;2.6;1;;;;;;;8.62;98.40723;942.9323;;;;
2019/11/05 02:48:06;;;;;;;2.3;1;;;;;;;8.63;100;942.8777;;;;
2019/11/05 02:50:31;;;;;;;3.1;1;;;;;;;8.73;98.19141;942.7745;;;;
2019/11/05 02:52:56;;;;;;;2;0.9;;;;;;;8.69;99.46484;942.7502;;;;
2019/11/05 02:55:21;;;;;;;2.6;0.9;;;;;;;8.59;98.95898;942.783;;;;
2019/11/05 02:57:46;;;;;;;1.8;0.8;;;;;;;8.67;100;942.8616;;;;
2019/11/05 03:00:11;;;;;;;2.9;0.9;;;;;;;8.67;97.51465;942.9136;;;;
2019/11/05 03:02:36;;;;;;;4;1.2;;;;;;;8.65;100;942.8567;;;;
2019/11/05 03:05:02;;;;;;;2.2;0.9;;;;;;;8.65;97.66895;942.8373;;;;
2019/11/05 03:07:27;;;;;;;3.4;0.8;;;;;;;8.57;96.63086;942.7836;;;;
2019/11/05 03:09:52;;;;;;;3.2;1.1;;;;;;;8.55;97.56641;942.7625;;;;
2019/11/05 03:12:17;;;;;;;3.1;1.1;;;;;;;8.6;100;942.7446;;;;
2019/11/05 03:14:43;;;;;;;2.7;1;;;;;;;8.54;99.41992;942.7673;;;;
2019/11/05 03:17:08;;;;;;;4.4;1.3;;;;;;;8.52;99.75977;942.8047;;;;
2019/11/05 03:19:33;;;;;;;3.9;1.1;;;;;;;8.49;98.29688;942.9053;;;;
2019/11/05 03:21:58;;;;;;;3.4;1.2;;;;;;;8.5;100;943.0874;;;;
2019/11/05 03:24:24;;;;;;;2.2;0.9;;;;;;;8.55;99.99512;943.088;;;;
2019/11/05 03:26:49;;;;;;;3;1;;;;;;;8.62;99.63379;943.0856;;;;
2019/11/05 03:29:14;;;;;;;3.5;0.9;;;;;;;8.61;100;943.079;;;;
2019/11/05 03:31:39;;;;;;;2;0.9;;;;;;;8.54;98.97363;942.903;;;;
2019/11/05 03:34:04;;;;;;;3.4;0.9;;;;;;;8.61;100;942.8606;;;;
2019/11/05 03:36:30;;;;;;;2.8;1;;;;;;;8.45;98.64355;942.9703;;;;
2019/11/05 03:38:55;;;;;;;3.1;1;;;;;;;8.37;99.16309;943.0333;;;;
2019/11/05 03:41:20;;;;;;;3.2;1;;;;;;;8.36;100;943.1242;;;;
2019/11/05 03:43:45;;;;;;;2.9;1;;;;;;;8.34;100;943.2053;;;;
2019/11/05 03:46:10;;;;;;;3.4;1.2;;;;;;;8.32;100;943.1033;;;;
2019/11/05 03:48:35;;;;;;;3.2;1.1;;;;;;;8.22;99.73438;942.9893;;;;
2019/11/05 03:51:01;;;;;;;3.3;1.2;;;;;;;8.26;99.86914;943.0715;;;;
2019/11/05 03:53:26;;;;;;;3.9;1;;;;;;;8.19;99.46289;943.1167;;;;
2019/11/05 03:55:51;;;;;;;4.9;1.3;;;;;;;8.23;99.62207;943.1526;;;;
2019/11/05 03:58:16;;;;;;;4.1;1.2;;;;;;;8.28;99.60059;943.2791;;;;
2019/11/05 04:02:27;;;;;;;3.4;1.2;;;;;;;8.27;100;943.1818;;;;
2019/11/05 04:04:52;;;;;;;3.9;1.1;;;;;;;8.26;98.49512;943.1738;;;;
2019/11/05 04:07:17;;;;;;;3.9;1.1;;;;;;;8.35;99.19141;943.1471;;;;
2019/11/05 04:09:42;;;;;;;5.1;1.4;;;;;;;8.33;100;943.0602;;;;
2019/11/05 04:12:07;;;;;;;3.4;1.1;;;;;;;8.2;97.4873;943.1153;;;;
2019/11/05 04:14:32;;;;;;;4.3;1.5;;;;;;;8.27;99.10449;943.2045;;;;
2019/11/05 04:16:57;;;;;;;4.1;1.2;;;;;;;8.26;97.84277;943.3296;;;;
2019/11/05 04:19:23;;;;;;;4.1;1.3;;;;;;;8.3;98.7666;943.3125;;;;
2019/11/05 04:21:48;;;;;;;3.1;1.3;;;;;;;8.2;97.17578;943.1965;;;;
2019/11/05 04:24:13;;;;;;;3.3;1;;;;;;;8.25;98.55078;943.1176;;;;
2019/11/05 04:26:38;;;;;;;3.1;1.3;;;;;;;8.3;97.81641;943.0172;;;;
2019/11/05 04:29:03;;;;;;;3.2;1.1;;;;;;;8.34;100;942.9853;;;;
2019/11/05 04:31:28;;;;;;;3.6;1.1;;;;;;;8.3;99.66016;942.9522;;;;
2019/11/05 04:33:53;;;;;;;3.9;1.2;;;;;;;8.27;98.44043;943.0139;;;;
2019/11/05 04:36:18;;;;;;;3.9;1.3;;;;;;;8.22;98.06348;942.9731;;;;
2019/11/05 04:38:43;;;;;;;3.2;1.1;;;;;;;8.22;97.76563;942.9211;;;;
2019/11/05 04:41:08;;;;;;;3.7;1.4;;;;;;;8.2;98.40234;942.8549;;;;
2019/11/05 04:43:34;;;;;;;8.4;1.5;;;;;;;8.21;99.0459;942.8621;;;;
2019/11/05 04:45:59;;;;;;;3.6;1.3;;;;;;;8.23;97.82715;942.8808;;;;
2019/11/05 04:48:24;;;;;;;2.7;1.1;;;;;;;8.39;100;942.7878;;;;
2019/11/05 04:50:49;;;;;;;2.9;1;;;;;;;8.41;100;942.7562;;;;
2019/11/05 04:53:14;;;;;;;3.3;1.1;;;;;;;8.29;100;942.8306;;;;
2019/11/05 04:55:39;;;;;;;3.9;1.1;;;;;;;8.26;100;942.9069;;;;
2019/11/05 04:58:04;;;;;;;4.4;1.2;;;;;;;8.26;100;943.0156;;;;
2019/11/05 05:00:29;;;;;;;4.2;1.2;;;;;;;8.25;100;943.0486;;;;
2019/11/05 05:02:54;;;;;;;2.6;1.1;;;;;;;8.29;100;942.9295;;;;
2019/11/05 05:05:19;;;;;;;2.5;0.9;;;;;;;8.33;100;942.8198;;;;
2019/11/05 05:07:44;;;;;;;3.8;1.2;;;;;;;8.3;97.22168;942.9182;;;;
2019/11/05 05:10:09;;;;;;;5.8;1.2;;;;;;;8.2;100;942.8467;;;;
2019/11/05 05:12:35;;;;;;;4;1.3;;;;;;;8.29;100;942.8055;;;;
2019/11/05 05:15:00;;;;;;;3.7;1.2;;;;;;;8.19;99.98047;942.827;;;;
2019/11/05 05:17:25;;;;;;;3.8;1.3;;;;;;;8.19;99.63477;942.7468;;;;
2019/11/05 05:19:50;;;;;;;2.9;1.2;;;;;;;8.18;100;942.7573;;;;
2019/11/05 05:22:15;;;;;;;3.3;1.4;;;;;;;8.11;98.69141;942.7218;;;;
2019/11/05 05:24:40;;;;;;;3.3;1.1;;;;;;;8.17;99.83691;942.7689;;;;
2019/11/05 05:27:06;;;;;;;2.5;1;;;;;;;8.19;98.43262;942.8376;;;;
2019/11/05 05:29:31;;;;;;;4.2;1.2;;;;;;;8.13;98.40918;942.8563;;;;
2019/11/05 05:31:56;;;;;;;4.3;1.4;;;;;;;8.2;99.65039;942.9019;;;;
2019/11/05 05:34:21;;;;;;;4.9;1.5;;;;;;;8.15;99.18066;942.9359;;;;
2019/11/05 05:36:46;;;;;;;5.2;1.4;;;;;;;8.11;99.05762;943.0219;;;;
2019/11/05 05:39:11;;;;;;;3.6;1.5;;;;;;;8.11;98.53125;943.0219;;;;
2019/11/05 05:41:36;;;;;;;4.1;1.4;;;;;;;8.25;100;943.043;;;;
2019/11/05 05:44:02;;;;;;;3.5;1.2;;;;;;;8.24;100;943.0439;;;;
2019/11/05 05:46:27;;;;;;;4.2;1.1;;;;;;;8.3;100;943.1047;;;;
2019/11/05 05:48:52;;;;;;;2.8;1.1;;;;;;;8.35;100;943.0887;;;;
2019/11/05 05:51:17;;;;;;;3.2;1;;;;;;;8.34;100;943.103;;;;
2019/11/05 05:53:42;;;;;;;4.5;1.4;;;;;;;8.3;100;943.1259;;;;
2019/11/05 05:56:08;;;;;;;4.2;1.5;;;;;;;8.29;100;943.1682;;;;
2019/11/05 05:58:33;;;;;;;4;1.5;;;;;;;8.33;100;943.1567;;;;
2019/11/05 06:00:58;;;;;;;4.3;1.6;;;;;;;8.32;100;943.2461;;;;
2019/11/05 06:03:23;;;;;;;4.5;1.5;;;;;;;8.37;99.64453;943.2207;;;;
2019/11/05 06:05:48;;;;;;;4.6;1.6;;;;;;;8.26;100;943.1591;;;;
2019/11/05 06:08:13;;;;;;;4;1.6;;;;;;;8.32;100;943.1666;;;;
2019/11/05 06:10:39;;;;;;;4.1;1.8;;;;;;;8.26;100;943.0861;;;;
2019/11/05 06:13:04;;;;;;;4.6;1.7;;;;;;;8.28;100;943.1443;;;;
2019/11/05 06:15:29;;;;;;;4.6;1.6;;;;;;;8.28;100;943.1914;;;;
2019/11/05 06:17:54;;;;;;;5.7;1.7;;;;;;;8.31;100;943.2531;;;;
2019/11/05 06:20:19;;;;;;;5.3;1.6;;;;;;;8.29;100;943.2517;;;;
2019/11/05 06:22:45;;;;;;;5;1.9;;;;;;;8.32;100;943.3167;;;;
2019/11/05 06:25:26;;;;;;;5.1;2.5;;;;;;;8.32;100;943.4051;;;;
2019/11/05 06:27:51;;;;;;;5;2.1;;;;;;;8.34;100;943.4576;;;;
2019/11/05 06:30:16;;;;;;;6.5;2.7;;;;;;;8.3;100;943.4456;;;;
2019/11/05 06:32:41;;;;;;;4;1.7;;;;;;;8.39;100;943.5645;;;;
2019/11/05 06:35:07;;;;;;;3.7;1.8;;;;;;;8.41;100;943.6401;;;;
2019/11/05 06:37:32;;;;;;;5.8;2.2;;;;;;;8.47;100;943.628;;;;
2019/11/05 06:39:57;;;;;;;5.5;2;;;;;;;8.42;100;943.5417;;;;
2019/11/05 06:42:22;;;;;;;4.7;1.8;;;;;;;8.43;100;943.5108;;;;
2019/11/05 06:44:47;;;;;;;6.1;1.9;;;;;;;8.36;98.2793;943.6258;;;;
2019/11/05 06:47:12;;;;;;;6.4;2.3;;;;;;;8.27;98.70313;943.7433;;;;
2019/11/05 06:49:37;;;;;;;4.8;1.9;;;;;;;8.27;98.875;943.7108;;;;
2019/11/05 06:52:02;;;;;;;4.8;2.5;;;;;;;8.33;100;943.7475;;;;
2019/11/05 06:54:27;;;;;;;7;2.3;;;;;;;8.28;99.73535;943.7392;;;;
2019/11/05 06:56:52;;;;;;;5.2;1.9;;;;;;;8.28;99.85254;943.8195;;;;
2019/11/05 06:59:18;;;;;;;5.8;2.2;;;;;;;8.29;98.7666;943.939;;;;
2019/11/05 07:01:43;;;;;;;6.7;2;;;;;;;8.33;100;943.9869;;;;
2019/11/05 07:04:08;;;;;;;5.6;2;;;;;;;8.3;99.30469;943.9584;;;;
2019/11/05 07:06:33;;;;;;;4.9;1.8;;;;;;;8.28;99.14258;943.9835;;;;
2019/11/05 07:08:58;;;;;;;5.3;2;;;;;;;8.32;98.7041;944.0259;;;;
2019/11/05 07:11:23;;;;;;;5.1;1.9;;;;;;;8.31;99.39844;943.9437;;;;
2019/11/05 07:13:48;;;;;;;5.8;1.9;;;;;;;8.32;97.54785;943.9724;;;;
2019/11/05 07:16:13;;;;;;;5.1;2;;;;;;;8.31;99.08008;943.8658;;;;
2019/11/05 07:18:38;;;;;;;4.8;1.7;;;;;;;8.33;99.88574;943.7668;;;;
2019/11/05 07:21:03;;;;;;;4.5;1.9;;;;;;;8.32;97.85742;943.7264;;;;
2019/11/05 07:23:28;;;;;;;5.8;2;;;;;;;8.37;98.87695;943.7117;;;;
2019/11/05 07:25:53;;;;;;;3.9;1.7;;;;;;;8.34;97.66602;943.7117;;;;
2019/11/05 07:28:18;;;;;;;6.4;2;;;;;;;8.43;100;943.7316;;;;
2019/11/05 07:30:43;;;;;;;4.6;1.8;;;;;;;8.45;99.0332;943.825;;;;
2019/11/05 07:33:09;;;;;;;5.4;1.9;;;;;;;8.34;97.02734;943.766;;;;
2019/11/05 07:35:34;;;;;;;4.6;1.7;;;;;;;8.33;98.01953;943.7539;;;;
2019/11/05 07:37:59;;;;;;;6.5;2.1;;;;;;;8.31;98.64453;943.865;;;;
2019/11/05 07:40:24;;;;;;;19;12.3;;;;;;;8.37;97.88965;943.8879;;;;
2019/11/05 07:42:49;;;;;;;12.4;5.7;;;;;;;8.45;99.28516;943.8755;;;;
2019/11/05 07:45:14;;;;;;;6;2.4;;;;;;;8.47;98.28125;943.8228;;;;
2019/11/05 07:47:39;;;;;;;6.1;2.3;;;;;;;8.63;99.91016;943.7173;;;;
2019/11/05 07:50:04;;;;;;;6.7;2.2;;;;;;;8.63;96.8623;943.7928;;;;
2019/11/05 07:52:30;;;;;;;4.8;1.8;;;;;;;8.73;96.91895;943.7601;;;;
2019/11/05 07:54:55;;;;;;;4.9;2;;;;;;;8.67;95.54199;943.8276;;;;
2019/11/05 07:57:20;;;;;;;5.5;2.2;;;;;;;8.65;95.22852;943.8936;;;;
2019/11/05 07:59:45;;;;;;;7.4;2.2;;;;;;;8.7;98.94141;943.9218;;;;
2019/11/05 08:02:10;;;;;;;6.8;2.3;;;;;;;8.62;96.59473;943.9285;;;;
2019/11/05 08:04:35;;;;;;;8.8;2.3;;;;;;;8.61;95.97461;944.0167;;;;
2019/11/05 08:07:00;;;;;;;7.7;2.1;;;;;;;8.5;95.46973;944.1305;;;;
2019/11/05 08:09:25;;;;;;;6;2;;;;;;;8.54;96.7627;944.2238;;;;
2019/11/05 08:11:51;;;;;;;6.5;2.4;;;;;;;8.65;95.89453;944.1168;;;;
2019/11/05 08:14:16;;;;;;;6.5;2.5;;;;;;;8.69;96.06152;943.995;;;;
2019/11/05 08:16:41;;;;;;;6.8;2.7;;;;;;;8.86;95.7207;943.8806;;;;
2019/11/05 08:19:06;;;;;;;7.7;3.6;;;;;;;8.85;96.15234;943.9081;;;;
2019/11/05 08:21:31;;;;;;;7.6;2.8;;;;;;;8.93;96.64258;943.9366;;;;
2019/11/05 08:23:57;;;;;;;6.8;2.9;;;;;;;8.91;97.00586;943.899;;;;
2019/11/05 08:26:22;;;;;;;6.7;2.6;;;;;;;8.93;94.80664;943.9138;;;;
2019/11/05 08:28:47;;;;;;;7.2;2.6;;;;;;;8.91;94.19629;943.9641;;;;
2019/11/05 08:31:12;;;;;;;8.8;3.1;;;;;;;8.91;93.50879;943.9292;;;;
2019/11/05 08:33:38;;;;;;;8.6;2.3;;;;;;;8.88;94.08594;943.9877;;;;
2019/11/05 08:36:03;;;;;;;6.1;2.4;;;;;;;8.96;95.29785;944.0656;;;;
2019/11/05 08:38:28;;;;;;;6.6;2.3;;;;;;;8.83;93.55957;944.0195;;;;
2019/11/05 08:40:53;;;;;;;8.5;2.3;;;;;;;8.83;93.18164;943.9611;;;;
2019/11/05 08:43:18;;;;;;;7.7;2.2;;;;;;;8.86;93.36133;943.8976;;;;
2019/11/05 08:45:43;;;;;;;8.9;2.5;;;;;;;8.9;94.66504;943.8926;;;;
2019/11/05 08:48:09;;;;;;;7.8;2.1;;;;;;;8.93;93.16699;943.8635;;;;
2019/11/05 08:50:34;;;;;;;6.4;2.3;;;;;;;9;93.82617;943.7829;;;;
2019/11/05 08:52:59;;;;;;;7.5;2.5;;;;;;;9.02;92.51367;943.8041;;;;
2019/11/05 08:55:24;;;;;;;5.1;2.2;;;;;;;9.08;91.94922;943.8203;;;;
2019/11/05 08:57:50;;;;;;;7.2;2.2;;;;;;;9.13;91.12305;943.861;;;;
2019/11/05 09:00:15;;;;;;;8.1;2.4;;;;;;;9.16;92.02441;943.8805;;;;
2019/11/05 09:02:40;;;;;;;8.3;2.3;;;;;;;9.22;91.29395;943.8981;;;;
2019/11/05 09:05:05;;;;;;;6.8;2.3;;;;;;;9.29;91.27246;943.9509;;;;
2019/11/05 09:07:30;;;;;;;7.4;2;;;;;;;9.37;91.8291;943.954;;;;
2019/11/05 09:09:56;;;;;;;7.8;2.1;;;;;;;9.33;90.22559;944.0034;;;;
2019/11/05 09:12:21;;;;;;;6.1;2.1;;;;;;;9.4;89.66699;943.9824;;;;
2019/11/05 09:14:46;;;;;;;9.2;2.4;;;;;;;9.46;89.32422;943.9433;;;;
2019/11/05 09:17:11;;;;;;;10.6;2.5;;;;;;;9.43;88.99512;943.8872;;;;
2019/11/05 09:19:36;;;;;;;8.1;1.9;;;;;;;9.49;89.26074;943.8008;;;;
2019/11/05 09:22:02;;;;;;;7.2;2.2;;;;;;;9.63;89.91895;943.7874;;;;
2019/11/05 09:24:27;;;;;;;7.3;2.3;;;;;;;9.8;89.38281;943.8438;;;;
2019/11/05 09:26:52;;;;;;;11.1;2.5;;;;;;;9.75;87.70605;943.9016;;;;
2019/11/05 09:29:17;;;;;;;13.9;2.5;;;;;;;9.71;88.76563;943.923;;;;
2019/11/05 09:31:43;;;;;;;7.4;2.1;;;;;;;9.69;88.12988;943.9403;;;;
2019/11/05 09:34:08;;;;;;;10.5;2.5;;;;;;;9.65;88.25879;943.9711;;;;
2019/11/05 09:36:33;;;;;;;9;2.4;;;;;;;9.71;86.6748;943.9009;;;;
2019/11/05 09:38:58;;;;;;;8.9;2.5;;;;;;;9.72;87.61914;943.8886;;;;
2019/11/05 09:41:24;;;;;;;6.8;2.3;;;;;;;9.87;87.5791;943.8597;;;;
2019/11/05 09:43:49;;;;;;;8.7;2.4;;;;;;;9.88;85.36523;943.8452;;;;
2019/11/05 09:46:14;;;;;;;8.7;2.3;;;;;;;9.91;85.7627;943.8865;;;;
2019/11/05 09:48:39;;;;;;;7.8;2;;;;;;;9.87;85.58105;943.9217;;;;
2019/11/05 09:51:04;;;;;;;9.1;2.5;;;;;;;9.86;85.34961;943.8306;;;;
2019/11/05 09:53:30;;;;;;;8.6;2.5;;;;;;;9.97;86.85352;943.8586;;;;
2019/11/05 09:55:55;;;;;;;9;2.4;;;;;;;10.11;86.49023;943.7952;;;;
2019/11/05 09:58:20;;;;;;;6.6;2.1;;;;;;;10.29;87.78125;943.7556;;;;
2019/11/05 10:00:45;;;;;;;7.5;2.5;;;;;;;10.24;86.97656;943.7751;;;;
2019/11/05 10:03:10;;;;;;;7.6;2.4;;;;;;;10.33;87.25;943.7675;;;;
2019/11/05 10:05:35;;;;;;;9.8;2.2;;;;;;;10.57;85.0752;943.7383;;;;
2019/11/05 10:08:01;;;;;;;9.6;2.5;;;;;;;10.39;83.46387;943.6785;;;;
2019/11/05 10:10:26;;;;;;;9;2.1;;;;;;;10.4;81.39648;943.7075;;;;
2019/11/05 10:12:51;;;;;;;8.3;2.2;;;;;;;10.23;82.61621;943.7419;;;;
2019/11/05 10:15:16;;;;;;;6.9;2.3;;;;;;;10.04;84.75293;943.6628;;;;
2019/11/05 10:17:42;;;;;;;10.7;2.2;;;;;;;10.11;84.80176;943.6782;;;;
2019/11/05 10:20:07;;;;;;;9.2;2.4;;;;;;;10.14;84.27832;943.6875;;;;
2019/11/05 10:22:32;;;;;;;11.1;2.6;;;;;;;10.14;84.92383;943.6731;;;;
2019/11/05 10:24:57;;;;;;;11.5;2.7;;;;;;;10.16;82.90137;943.6517;;;;
2019/11/05 10:27:22;;;;;;;6.9;2.2;;;;;;;10.09;82.7168;943.6887;;;;
2019/11/05 10:29:48;;;;;;;9.6;2.5;;;;;;;10.1;83.38379;943.613;;;;
2019/11/05 10:32:13;;;;;;;9.4;2.2;;;;;;;10.23;84.77832;943.5161;;;;
2019/11/05 10:34:38;;;;;;;8.2;2.5;;;;;;;10.39;82.34766;943.4586;;;;
2019/11/05 10:37:03;;;;;;;10.2;2.6;;;;;;;10.17;82.51367;943.4899;;;;
2019/11/05 10:39:28;;;;;;;11;2.4;;;;;;;10.24;84.66699;943.3973;;;;
2019/11/05 10:41:53;;;;;;;8.4;2.2;;;;;;;10.41;84.31836;943.3784;;;;
2019/11/05 10:44:19;;;;;;;7.9;2.3;;;;;;;10.6;84;943.3968;;;;
2019/11/05 10:46:44;;;;;;;11.4;2.5;;;;;;;10.51;81.96875;943.3876;;;;
2019/11/05 10:49:09;;;;;;;10.2;2.5;;;;;;;10.42;83.28711;943.4127;;;;
2019/11/05 10:51:34;;;;;;;11.9;2.9;;;;;;;10.37;82.74902;943.5017;;;;
2019/11/05 10:53:59;;;;;;;9.1;2.5;;;;;;;10.38;81.54102;943.4959;;;;
2019/11/05 10:56:24;;;;;;;11.2;2.7;;;;;;;10.35;82.05176;943.462;;;;
2019/11/05 10:58:50;;;;;;;9.4;2.6;;;;;;;10.44;82.18359;943.4361;;;;
2019/11/05 11:01:15;;;;;;;8.5;2.5;;;;;;;10.56;82.38086;943.4915;;;;
2019/11/05 11:03:40;;;;;;;8.1;2.4;;;;;;;10.4;80.78516;943.4975;;;;
2019/11/05 11:06:05;;;;;;;8.8;2.5;;;;;;;10.75;83.10742;943.4308;;;;
2019/11/05 11:08:30;;;;;;;10.5;2.8;;;;;;;10.74;85.23535;943.4365;;;;
2019/11/05 11:10:55;;;;;;;9.6;3.1;;;;;;;10.73;83.37988;943.5391;;;;
2019/11/05 11:13:21;;;;;;;8.8;2.7;;;;;;;10.79;81.96289;943.5485;;;;
2019/11/05 11:15:46;;;;;;;9.9;2.9;;;;;;;10.63;82.35938;943.5613;;;;
2019/11/05 11:18:11;;;;;;;8.5;2.5;;;;;;;10.74;83.23242;943.5381;;;;
2019/11/05 11:20:36;;;;;;;8.3;2.9;;;;;;;10.57;82.72754;943.5811;;;;
2019/11/05 11:23:01;;;;;;;9.7;2.8;;;;;;;10.49;82.63281;943.6287;;;;
2019/11/05 11:25:26;;;;;;;10.1;3;;;;;;;10.55;83.25391;943.6178;;;;
2019/11/05 11:27:52;;;;;;;8.7;2.9;;;;;;;10.5;83.53223;943.6313;;;;
2019/11/05 11:30:17;;;;;;;11;3.8;;;;;;;10.67;85.7168;943.5053;;;;
2019/11/05 11:32:42;;;;;;;11.6;3.5;;;;;;;10.71;87.39453;943.5549;;;;
2019/11/05 11:35:07;;;;;;;8.6;2.9;;;;;;;10.68;83.94727;943.4794;;;;
2019/11/05 11:37:32;;;;;;;9.1;2.8;;;;;;;10.73;83.17285;943.3933;;;;
2019/11/05 11:39:57;;;;;;;7.2;2.5;;;;;;;10.8;85.08691;943.427;;;;
2019/11/05 11:42:23;;;;;;;7.9;2.5;;;;;;;10.67;83.80566;943.3954;;;;
2019/11/05 11:44:48;;;;;;;7.3;2.4;;;;;;;10.62;84.99414;943.3544;;;;
2019/11/05 11:47:13;;;;;;;7.2;2.2;;;;;;;10.61;84.24414;943.2974;;;;
2019/11/05 11:49:39;;;;;;;7.6;2.5;;;;;;;10.91;84.44922;943.325;;;;
2019/11/05 11:52:04;;;;;;;8.4;2.7;;;;;;;10.94;83.55762;943.319;;;;
2019/11/05 11:54:29;;;;;;;7.8;2.5;;;;;;;10.85;84.11621;943.3508;;;;
2019/11/05 11:56:54;;;;;;;5.8;2.1;;;;;;;10.66;81.49023;943.3133;;;;
2019/11/05 11:59:19;;;;;;;6.6;2.2;;;;;;;10.66;83.41406;943.3393;;;;
2019/11/05 12:01:44;;;;;;;6.6;2.2;;;;;;;10.76;82.17773;943.3392;;;;
2019/11/05 12:04:10;;;;;;;6.8;2.1;;;;;;;10.91;82.19336;943.3869;;;;
2019/11/05 12:06:35;;;;;;;9.2;1.9;;;;;;;10.77;81.74023;943.3231;;;;
2019/11/05 12:09:00;;;;;;;5.4;2;;;;;;;10.73;81.125;943.3842;;;;
2019/11/05 12:11:25;;;;;;;8;2.3;;;;;;;10.65;80.91113;943.3727;;;;
2019/11/05 12:13:50;;;;;;;5.2;2;;;;;;;10.76;81.9707;943.3222;;;;
2019/11/05 12:16:16;;;;;;;7.7;2.2;;;;;;;10.77;80.83105;943.3195;;;;
2019/11/05 12:18:41;;;;;;;5.7;2;;;;;;;10.87;80.28613;943.4012;;;;
2019/11/05 12:21:06;;;;;;;9.4;2.1;;;;;;;10.85;80.38672;943.4084;;;;
2019/11/05 12:23:31;;;;;;;5.9;1.9;;;;;;;11.09;80.67188;943.4081;;;;
2019/11/05 12:25:57;;;;;;;8.2;2.2;;;;;;;10.99;80.44434;943.348;;;;
2019/11/05 12:28:22;;;;;;;8.4;2.6;;;;;;;10.99;81.72559;943.3072;;;;
2019/11/05 12:30:47;;;;;;;6.4;2.1;;;;;;;11.05;83.47656;943.38;;;;
2019/11/05 12:33:12;;;;;;;6.7;2;;;;;;;10.93;82.57715;943.3315;;;;
2019/11/05 12:35:37;;;;;;;4.9;1.8;;;;;;;10.92;83.10742;943.3967;;;;
2019/11/05 12:38:03;;;;;;;7.8;1.9;;;;;;;10.68;82.85352;943.4492;;;;
2019/11/05 12:40:27;;;;;;;6.6;1.8;;;;;;;10.81;83.73145;943.4317;;;;
2019/11/05 12:42:53;;;;;;;7.7;2.1;;;;;;;10.92;83.24316;943.4227;;;;
2019/11/05 12:45:18;;;;;;;4.5;1.9;;;;;;;10.77;82.04004;943.4189;;;;
2019/11/05 12:47:44;;;;;;;8.1;2.2;;;;;;;10.66;81.94043;943.4347;;;;
2019/11/05 12:50:09;;;;;;;7.5;1.9;;;;;;;10.76;83.08594;943.4241;;;;
2019/11/05 12:52:34;;;;;;;5.2;2.1;;;;;;;10.74;82.89844;943.3981;;;;
2019/11/05 12:54:59;;;;;;;6;2;;;;;;;10.69;84.96191;943.4515;;;;
2019/11/05 12:57:28;;;;;;;8;1.9;;;;;;;10.46;84.7998;943.4637;;;;
2019/11/05 12:59:49;;;;;;;4.1;1.8;;;;;;;10.54;85.81641;943.4763;;;;
2019/11/05 13:02:14;;;;;;;7.2;1.9;;;;;;;10.55;87.24512;943.4444;;;;
2019/11/05 13:04:40;;;;;;;7.3;2.1;;;;;;;10.54;86.35938;943.425;;;;
2019/11/05 13:07:05;;;;;;;5.7;2.1;;;;;;;10.5;87.0293;943.4286;;;;
2019/11/05 13:09:30;;;;;;;6.3;2.1;;;;;;;10.45;86.82227;943.4966;;;;
2019/11/05 13:11:55;;;;;;;5.9;2.6;;;;;;;10.53;87.14941;943.565;;;;
2019/11/05 13:14:20;;;;;;;6.4;2.2;;;;;;;10.56;85.02734;943.5101;;;;
2019/11/05 13:16:45;;;;;;;5.2;2;;;;;;;10.63;84.25879;943.4928;;;;
2019/11/05 13:19:10;;;;;;;7.5;2;;;;;;;10.58;82.44336;943.5092;;;;
2019/11/05 13:21:35;;;;;;;5.9;1.9;;;;;;;10.56;84.95898;943.449;;;;
2019/11/05 13:24:00;;;;;;;5.3;1.8;;;;;;;10.52;85.42285;943.4511;;;;
2019/11/05 13:26:26;;;;;;;9.2;1.7;;;;;;;10.56;83.29004;943.5273;;;;
2019/11/05 13:28:51;;;;;;;5.3;1.6;;;;;;;10.43;82.63086;943.4917;;;;
2019/11/05 13:31:16;;;;;;;6;1.9;;;;;;;10.54;85.21777;943.443;;;;
2019/11/05 13:33:41;;;;;;;8.1;1.9;;;;;;;10.45;84.16602;943.463;;;;
2019/11/05 13:36:06;;;;;;;7.1;2.2;;;;;;;10.57;85.45508;943.4394;;;;
2019/11/05 13:38:31;;;;;;;7.3;2;;;;;;;10.58;85.06543;943.4051;;;;
2019/11/05 13:40:56;;;;;;;8.2;2;;;;;;;10.76;85.17188;943.4216;;;;
2019/11/05 13:43:21;;;;;;;6.3;2;;;;;;;10.82;82.49902;943.465;;;;
2019/11/05 13:45:46;;;;;;;6.5;2.1;;;;;;;10.87;82.89941;943.4509;;;;
2019/11/05 13:48:11;;;;;;;5.2;1.9;;;;;;;10.9;83.41309;943.4131;;;;
2019/11/05 13:50:36;;;;;;;6.1;1.9;;;;;;;10.81;84.89258;943.4595;;;;
2019/11/05 13:53:01;;;;;;;6.6;2.1;;;;;;;10.96;83.14648;943.4069;;;;
2019/11/05 13:55:27;;;;;;;5.3;1.8;;;;;;;10.92;82.12793;943.418;;;;
2019/11/05 13:57:52;;;;;;;5.3;1.8;;;;;;;10.88;82.64941;943.4628;;;;
2019/11/05 14:00:17;;;;;;;6;1.9;;;;;;;10.81;82.93457;943.4009;;;;
2019/11/05 14:02:42;;;;;;;6;1.9;;;;;;;10.95;83.52734;943.4641;;;;
2019/11/05 14:05:07;;;;;;;7.2;1.7;;;;;;;10.89;83.70898;943.4506;;;;
2019/11/05 14:07:33;;;;;;;6.2;1.8;;;;;;;10.8;83.07129;943.4156;;;;
2019/11/05 14:09:58;;;;;;;6.4;1.9;;;;;;;10.71;83.69922;943.48;;;;
2019/11/05 14:12:23;;;;;;;5.8;1.8;;;;;;;10.76;83.63867;943.4469;;;;
2019/11/05 14:14:48;;;;;;;7.5;2;;;;;;;10.6;82.81445;943.4089;;;;
2019/11/05 14:17:14;;;;;;;4.9;1.7;;;;;;;10.79;82.52637;943.4263;;;;
2019/11/05 14:19:39;;;;;;;5.2;1.7;;;;;;;10.79;80.60547;943.4498;;;;
2019/11/05 14:22:04;;;;;;;5.3;1.8;;;;;;;10.74;82.0459;943.4503;;;;
2019/11/05 14:24:29;;;;;;;5.4;1.8;;;;;;;10.7;81.7041;943.4571;;;;
2019/11/05 14:26:54;;;;;;;7.6;2.1;;;;;;;10.6;82.7002;943.4554;;;;
2019/11/05 14:29:19;;;;;;;7.3;2.1;;;;;;;10.56;82.70313;943.4866;;;;
2019/11/05 14:31:45;;;;;;;6.6;2.2;;;;;;;10.62;83.42676;943.4839;;;;
2019/11/05 14:34:10;;;;;;;7.5;2.2;;;;;;;10.58;84.14453;943.4384;;;;
2019/11/05 14:36:35;;;;;;;6.3;2.1;;;;;;;10.58;82.85547;943.4474;;;;
2019/11/05 14:39:01;;;;;;;15.3;9.1;;;;;;;10.39;82.29102;943.4651;;;;
2019/11/05 14:41:26;;;;;;;7.6;2.8;;;;;;;10.36;82.81445;943.4473;;;;